createdAt,value
2022-12-26T00:02:36.432Z,12.96
2022-12-26T00:06:36.888Z,12.85
2022-12-26T00:10:36.932Z,12.79
2022-12-26T00:14:37.076Z,12.76
2022-12-26T00:18:39.990Z,12.50
2022-12-26T00:22:40.039Z,12.36
2022-12-26T00:26:40.713Z,12.47
2022-12-26T00:30:41.214Z,12.54
2022-12-26T00:34:44.005Z,12.74
2022-12-26T00:38:45.957Z,12.41
2022-12-26T00:42:46.176Z,12.82
2022-12-26T00:46:46.302Z,12.79
2022-12-26T00:50:49.076Z,12.79
2022-12-26T00:54:49.150Z,12.69
2022-12-26T00:58:49.216Z,12.74
2022-12-26T01:02:49.545Z,12.84
2022-12-26T01:06:52.398Z,12.83
2022-12-26T01:10:52.746Z,12.64
2022-12-26T01:14:52.792Z,12.61
2022-12-26T01:18:52.863Z,12.64
2022-12-26T01:22:55.567Z,12.50
2022-12-26T01:26:55.626Z,12.84
2022-12-26T01:30:55.757Z,12.77
2022-12-26T01:34:56.417Z,12.87
2022-12-26T01:38:59.142Z,12.92
2022-12-26T01:43:00.440Z,12.82
2022-12-26T01:47:01.346Z,12.85
2022-12-26T01:51:06.890Z,12.57
2022-12-26T01:55:14.841Z,12.46
2022-12-26T01:59:20.730Z,12.35
2022-12-26T02:03:33.639Z,12.49
2022-12-26T02:07:37.366Z,12.41
2022-12-26T02:11:45.812Z,12.52
2022-12-26T02:15:47.428Z,12.63
2022-12-26T02:20:00.745Z,12.81
2022-12-26T02:24:33.489Z,12.66
2022-12-26T02:29:06.898Z,12.61
2022-12-26T02:33:51.508Z,12.69
2022-12-26T02:38:11.000Z,12.53
2022-12-26T02:42:31.409Z,12.61
2022-12-26T02:46:54.813Z,12.57
2022-12-26T02:51:26.360Z,12.51
2022-12-26T02:55:44.915Z,12.49
2022-12-26T03:00:09.495Z,12.53
2022-12-26T03:04:29.337Z,12.48
2022-12-26T03:09:02.826Z,12.55
2022-12-26T03:13:13.628Z,12.63
2022-12-26T03:17:27.121Z,12.45
2022-12-26T03:21:33.609Z,12.47
2022-12-26T03:25:58.069Z,12.38
2022-12-26T03:30:11.216Z,12.36
2022-12-26T03:34:20.489Z,12.28
2022-12-26T03:38:29.102Z,12.28
2022-12-26T03:42:57.026Z,12.31
2022-12-26T03:47:28.866Z,12.30
2022-12-26T03:51:53.474Z,12.33
2022-12-26T03:56:14.413Z,12.36
2022-12-26T04:00:45.943Z,12.34
2022-12-26T04:05:01.489Z,12.45
2022-12-26T04:09:26.253Z,12.57
2022-12-26T04:13:45.776Z,12.55
2022-12-26T04:18:17.656Z,12.42
2022-12-26T04:22:42.952Z,12.38
2022-12-26T04:27:00.831Z,12.43
2022-12-26T04:31:24.649Z,12.41
2022-12-26T04:35:50.058Z,12.53
2022-12-26T04:40:08.980Z,12.58
2022-12-26T04:44:12.015Z,12.58
2022-12-26T04:48:26.283Z,12.63
2022-12-26T04:52:49.090Z,12.42
2022-12-26T04:56:49.250Z,12.21
2022-12-26T05:00:49.312Z,12.38
2022-12-26T05:05:02.074Z,12.01
2022-12-26T05:09:17.230Z,12.50
2022-12-26T05:13:17.375Z,12.53
2022-12-26T05:17:30.263Z,12.55
2022-12-26T05:21:42.909Z,12.53
2022-12-26T05:26:01.342Z,12.50
2022-12-26T05:30:01.630Z,12.53
2022-12-26T05:34:12.290Z,12.35
2022-12-26T05:38:13.690Z,12.41
2022-12-26T05:42:16.432Z,12.33
2022-12-26T05:46:16.679Z,12.33
2022-12-26T05:50:16.943Z,12.29
2022-12-26T05:54:16.989Z,12.41
2022-12-26T05:58:19.786Z,12.41
2022-12-26T06:02:20.041Z,12.45
2022-12-26T06:06:22.339Z,12.49
2022-12-26T06:10:22.543Z,12.52
2022-12-26T06:14:25.706Z,12.81
2022-12-26T06:18:25.897Z,12.97
2022-12-26T06:22:26.233Z,12.98
2022-12-26T06:26:26.371Z,12.86
2022-12-26T06:30:29.127Z,12.98
2022-12-26T06:34:29.285Z,13.11
2022-12-26T06:38:29.508Z,13.52
2022-12-26T06:42:29.565Z,13.51
2022-12-26T06:46:32.374Z,13.63
2022-12-26T06:50:32.530Z,13.72
2022-12-26T06:54:33.370Z,14.15
2022-12-26T06:58:33.452Z,14.27
2022-12-26T07:02:36.209Z,14.20
2022-12-26T07:06:39.347Z,14.18
2022-12-26T07:10:40.166Z,14.04
2022-12-26T07:14:40.426Z,14.17
2022-12-26T07:18:44.641Z,14.11
2022-12-26T07:22:44.916Z,14.05
2022-12-26T07:26:45.559Z,13.91
2022-12-26T07:30:50.206Z,13.99
2022-12-26T07:34:53.262Z,14.13
2022-12-26T07:38:53.396Z,13.99
2022-12-26T07:42:56.800Z,14.08
2022-12-26T07:46:58.140Z,14.22
2022-12-26T07:51:04.903Z,14.29
2022-12-26T07:55:05.044Z,14.08
2022-12-26T07:59:05.301Z,14.40
2022-12-26T08:03:08.037Z,14.34
2022-12-26T08:07:11.270Z,14.17
2022-12-26T08:11:18.154Z,14.13
2022-12-26T08:15:18.466Z,14.11
2022-12-26T08:19:18.725Z,14.20
2022-12-26T08:23:21.791Z,13.99
2022-12-26T08:27:21.945Z,14.11
2022-12-26T08:35:44.169Z,14.58
2022-12-26T08:39:47.504Z,14.67
2022-12-26T08:48:11.862Z,15.51
2022-12-26T08:52:12.032Z,15.60
2022-12-26T08:56:18.293Z,15.60
2022-12-26T09:00:23.971Z,15.34
2022-12-26T09:04:25.290Z,15.82
2022-12-26T09:08:25.381Z,15.98
2022-12-26T09:12:28.496Z,15.84
2022-12-26T09:16:37.793Z,16.07
2022-12-26T09:20:39.392Z,16.14
2022-12-26T09:24:39.692Z,16.33
2022-12-26T09:28:43.151Z,16.18
2022-12-26T09:32:44.310Z,16.35
2022-12-26T09:36:44.438Z,16.48
2022-12-26T09:41:05.409Z,16.47
2022-12-26T09:45:17.016Z,16.63
2022-12-26T09:49:22.971Z,16.64
2022-12-26T09:53:34.645Z,16.96
2022-12-26T09:57:45.303Z,17.09
2022-12-26T10:01:49.232Z,16.93
2022-12-26T10:06:09.594Z,16.57
2022-12-26T10:10:14.824Z,16.50
2022-12-26T10:14:25.458Z,16.68
2022-12-26T10:18:41.791Z,16.44
2022-12-26T10:23:19.448Z,16.38
2022-12-26T10:27:23.153Z,16.15
2022-12-26T10:31:31.221Z,16.09
2022-12-26T10:35:40.384Z,15.82
2022-12-26T10:39:49.175Z,16.06
2022-12-26T10:43:49.357Z,15.90
2022-12-26T10:47:53.567Z,15.74
2022-12-26T10:51:59.671Z,15.65
2022-12-26T10:56:03.463Z,15.42
2022-12-26T11:00:05.545Z,15.83
2022-12-26T11:04:08.855Z,15.18
2022-12-26T11:08:22.663Z,15.66
2022-12-26T11:12:30.001Z,15.56
2022-12-26T11:16:34.449Z,15.80
2022-12-26T11:20:35.107Z,15.57
2022-12-26T11:24:37.881Z,16.04
2022-12-26T11:28:40.093Z,15.99
2022-12-26T11:32:40.543Z,15.97
2022-12-26T11:36:50.930Z,15.74
2022-12-26T11:41:13.684Z,15.69
2022-12-26T11:45:15.421Z,15.23
2022-12-26T11:49:33.733Z,15.38
2022-12-26T11:53:34.959Z,15.18
2022-12-26T11:57:37.706Z,15.52
2022-12-26T12:01:37.929Z,15.13
2022-12-26T12:05:53.608Z,15.64
2022-12-26T12:10:02.596Z,15.06
2022-12-26T12:14:35.795Z,15.37
2022-12-26T12:18:54.245Z,15.38
2022-12-26T12:23:21.921Z,15.62
2022-12-26T12:27:32.398Z,15.61
2022-12-26T12:31:52.249Z,15.51
2022-12-26T12:36:09.018Z,15.58
2022-12-26T12:40:31.842Z,15.61
2022-12-26T12:44:55.706Z,15.43
2022-12-26T12:49:37.533Z,15.71
2022-12-26T12:54:29.459Z,15.49
2022-12-26T12:58:41.883Z,15.35
2022-12-26T13:02:48.518Z,15.35
2022-12-26T13:06:57.877Z,14.90
2022-12-26T13:11:05.845Z,15.02
2022-12-26T13:15:20.855Z,15.16
2022-12-26T13:19:25.952Z,15.17
2022-12-26T13:23:50.950Z,15.38
2022-12-26T13:27:56.171Z,15.43
2022-12-26T13:31:56.496Z,15.08
2022-12-26T13:36:01.624Z,15.40
2022-12-26T13:40:09.787Z,15.16
2022-12-26T13:44:28.682Z,15.07
2022-12-26T13:49:04.567Z,15.55
2022-12-26T13:53:06.592Z,15.57
2022-12-26T13:57:40.295Z,15.20
2022-12-26T14:01:56.293Z,15.50
2022-12-26T14:06:25.680Z,15.19
2022-12-26T14:10:40.485Z,15.35
2022-12-26T14:15:03.556Z,15.31
2022-12-26T14:19:19.930Z,15.16
2022-12-26T14:23:46.977Z,14.93
2022-12-26T14:27:54.861Z,14.76
2022-12-26T14:32:31.340Z,14.90
2022-12-26T14:36:45.441Z,14.90
2022-12-26T14:41:04.719Z,14.92
2022-12-26T14:45:12.638Z,15.06
2022-12-26T14:49:39.250Z,14.99
2022-12-26T14:53:41.168Z,14.87
2022-12-26T14:57:51.926Z,14.85
2022-12-26T15:02:11.368Z,14.89
2022-12-26T15:06:59.224Z,14.78
2022-12-26T15:12:04.944Z,15.04
2022-12-26T15:16:49.621Z,14.59
2022-12-26T15:21:31.882Z,14.62
2022-12-26T15:26:11.742Z,14.86
2022-12-26T15:30:23.754Z,14.88
2022-12-26T15:34:57.307Z,14.75
2022-12-26T15:39:08.691Z,15.10
2022-12-26T15:43:44.769Z,14.89
2022-12-26T15:47:57.325Z,14.82
2022-12-26T15:52:13.512Z,14.93
2022-12-26T15:56:52.071Z,14.92
2022-12-26T16:00:55.453Z,14.58
2022-12-26T16:05:01.354Z,14.84
2022-12-26T16:09:30.229Z,14.83
2022-12-26T16:13:34.067Z,14.97
2022-12-26T16:17:34.724Z,14.68
2022-12-26T16:21:47.420Z,14.96
2022-12-26T16:25:51.291Z,15.03
2022-12-26T16:30:00.184Z,14.89
2022-12-26T16:34:02.632Z,15.30
2022-12-26T16:38:06.733Z,14.87
2022-12-26T16:42:10.233Z,15.07
2022-12-26T16:46:18.340Z,14.98
2022-12-26T16:50:22.477Z,15.03
2022-12-26T16:54:33.181Z,15.17
2022-12-26T16:58:39.607Z,15.20
2022-12-26T17:02:50.263Z,15.09
2022-12-26T17:06:55.602Z,15.12
2022-12-26T17:10:56.490Z,15.13
2022-12-26T17:14:59.762Z,15.37
2022-12-26T17:19:20.578Z,15.24
2022-12-26T17:23:39.951Z,15.00
2022-12-26T17:27:40.073Z,15.32
2022-12-26T17:31:44.423Z,15.00
2022-12-26T17:40:29.316Z,15.15
2022-12-26T17:44:42.493Z,14.64
2022-12-26T17:48:43.213Z,14.70
2022-12-26T17:52:46.119Z,14.68
2022-12-26T17:56:46.175Z,14.74
2022-12-26T18:00:48.055Z,14.66
2022-12-26T18:04:48.985Z,14.75
2022-12-26T18:08:51.772Z,14.82
2022-12-26T18:12:52.656Z,14.83
2022-12-26T18:16:55.015Z,14.92
2022-12-26T18:20:55.664Z,14.64
2022-12-26T18:24:58.438Z,14.88
2022-12-26T18:28:59.114Z,14.81
2022-12-26T18:32:59.261Z,14.97
2022-12-26T18:36:59.300Z,14.66
2022-12-26T18:41:02.485Z,14.96
2022-12-26T18:45:02.574Z,14.58
2022-12-26T18:49:02.722Z,14.85
2022-12-26T18:53:02.870Z,14.97
2022-12-26T18:57:06.862Z,14.95
2022-12-26T19:01:07.644Z,15.14
2022-12-26T19:05:10.075Z,15.08
2022-12-26T19:09:11.623Z,14.61
2022-12-26T19:13:15.341Z,14.97
2022-12-26T19:17:15.609Z,14.63
2022-12-26T19:21:16.939Z,14.94
2022-12-26T19:25:18.922Z,14.91
2022-12-26T19:29:21.667Z,15.07
2022-12-26T19:33:22.383Z,14.97
2022-12-26T19:37:22.602Z,14.06
2022-12-26T19:41:23.210Z,15.11
2022-12-26T19:45:26.055Z,15.05
2022-12-26T19:49:31.882Z,14.73
2022-12-26T19:53:34.014Z,14.33
2022-12-26T19:57:34.785Z,14.04
2022-12-26T20:01:37.701Z,13.88
2022-12-26T20:05:41.384Z,13.55
2022-12-26T20:09:41.801Z,14.08
2022-12-26T20:13:42.708Z,13.47
2022-12-26T20:17:45.420Z,13.59
2022-12-26T20:21:45.536Z,13.86
2022-12-26T20:25:46.923Z,14.03
2022-12-26T20:29:47.396Z,14.08
2022-12-26T20:33:54.059Z,13.84
2022-12-26T20:37:54.679Z,13.96
2022-12-26T20:41:54.833Z,14.05
2022-12-26T20:45:55.703Z,13.76
2022-12-26T20:49:58.428Z,13.89
2022-12-26T20:53:58.587Z,13.51
2022-12-26T20:57:58.656Z,13.56
2022-12-26T21:01:58.850Z,13.53
2022-12-26T21:06:09.754Z,13.42
2022-12-26T21:10:12.916Z,13.61
2022-12-26T21:14:17.998Z,13.51
2022-12-26T21:18:18.081Z,13.56
2022-12-26T21:22:20.774Z,13.28
2022-12-26T21:26:20.794Z,13.58
2022-12-26T21:30:20.960Z,13.31
2022-12-26T21:34:24.524Z,13.30
2022-12-26T21:38:32.346Z,13.42
2022-12-26T21:42:32.483Z,13.39
2022-12-26T21:46:32.649Z,13.36
2022-12-26T21:50:32.827Z,13.46
2022-12-26T21:54:49.397Z,13.25
2022-12-26T21:59:07.819Z,13.07
2022-12-26T22:03:20.956Z,12.96
2022-12-26T22:07:21.066Z,12.91
2022-12-26T22:11:36.205Z,12.80
2022-12-26T22:15:49.267Z,12.94
2022-12-26T22:19:49.400Z,12.90
2022-12-26T22:23:51.445Z,12.89
2022-12-26T22:27:54.197Z,12.77
2022-12-26T22:31:58.391Z,12.99
2022-12-26T22:36:05.618Z,13.13
2022-12-26T22:40:05.995Z,12.68
2022-12-26T22:44:08.820Z,12.99
2022-12-26T22:48:09.418Z,13.07
2022-12-26T22:52:15.507Z,12.53
2022-12-26T22:56:16.486Z,12.73
2022-12-26T23:00:19.937Z,12.68
2022-12-26T23:04:20.737Z,12.23
2022-12-26T23:08:25.291Z,12.60
2022-12-26T23:12:38.809Z,12.68
2022-12-26T23:16:53.144Z,12.27
2022-12-26T23:21:07.547Z,12.26
2022-12-26T23:25:08.629Z,12.34
2022-12-26T23:29:21.334Z,12.65
2022-12-26T23:33:24.007Z,12.74
2022-12-26T23:37:24.066Z,12.52
2022-12-26T23:41:24.137Z,12.29
2022-12-26T23:45:24.242Z,12.38
2022-12-26T23:49:26.965Z,12.03
2022-12-26T23:53:27.018Z,11.86
2022-12-26T23:57:27.221Z,11.02
